Time,TemperatureF,DewpointF,PressureIn,WindDirection,WindDirectionDegrees,WindSpeedMPH,WindSpeedGustMPH,Humidity,HourlyPrecipIn,Conditions,Clouds,dailyrainin,SoftwareType,DateUTC
2017-03-27 00:14:00,37.0,35.0,30.10,SE,126,7.0,24.0,92,0.00,,,0.00,weatherlink.com 1.10,2017-03-27 04:14:00,
2017-03-27 00:28:00,36.9,35.0,30.09,SE,126,9.0,22.0,92,0.00,,,0.00,weatherlink.com 1.10,2017-03-27 04:28:00,
2017-03-27 00:43:00,36.9,35.0,30.07,SE,140,13.0,30.0,93,0.00,,,0.00,weatherlink.com 1.10,2017-03-27 04:43:00,
2017-03-27 00:59:00,36.9,35.0,30.06,SSE,155,16.0,25.0,93,0.00,,,0.00,weatherlink.com 1.10,2017-03-27 04:59:00,
2017-03-27 01:14:00,37.2,35.0,30.06,ESE,107,11.0,24.0,93,0.00,,,0.00,weatherlink.com 1.10,2017-03-27 05:14:00,
2017-03-27 01:45:00,37.3,35.0,30.05,South,179,12.0,22.0,92,0.00,,,0.00,weatherlink.com 1.10,2017-03-27 05:45:00,
2017-03-27 02:00:00,37.2,35.0,30.04,ESE,119,8.0,18.0,93,0.01,,,0.01,weatherlink.com 1.10,2017-03-27 06:00:00,
2017-03-27 02:14:00,37.3,36.0,30.03,South,185,10.0,21.0,94,0.02,,,0.02,weatherlink.com 1.10,2017-03-27 06:14:00,
2017-03-27 02:30:00,37.2,36.0,30.02,SE,145,11.0,22.0,94,0.04,,,0.04,weatherlink.com 1.10,2017-03-27 06:30:00,
2017-03-27 02:45:00,37.3,36.0,30.00,South,182,6.0,22.0,94,0.06,,,0.06,weatherlink.com 1.10,2017-03-27 06:45:00,
2017-03-27 03:00:00,37.6,36.0,30.01,SSW,212,11.0,21.0,93,0.05,,,0.06,weatherlink.com 1.10,2017-03-27 07:00:00,
2017-03-27 03:16:00,37.7,36.0,30.02,South,171,9.0,19.0,93,0.04,,,0.06,weatherlink.com 1.10,2017-03-27 07:16:00,
2017-03-27 03:30:00,37.7,36.0,30.00,SSE,157,7.0,20.0,93,0.02,,,0.06,weatherlink.com 1.10,2017-03-27 07:30:00,
2017-03-27 03:45:00,37.9,36.0,30.01,SSW,207,7.0,17.0,93,0.00,,,0.06,weatherlink.com 1.10,2017-03-27 07:45:00,
2017-03-27 04:00:00,37.9,36.0,30.00,SSW,196,5.0,16.0,93,0.00,,,0.06,weatherlink.com 1.10,2017-03-27 08:00:00,
2017-03-27 04:15:00,37.9,36.0,29.98,South,171,13.0,17.0,93,0.00,,,0.06,weatherlink.com 1.10,2017-03-27 08:15:00,
2017-03-27 04:30:00,38.0,36.0,29.98,South,187,5.0,18.0,93,0.00,,,0.06,weatherlink.com 1.10,2017-03-27 08:30:00,
2017-03-27 04:46:00,38.1,36.0,29.98,SSE,167,1.0,13.0,93,0.00,,,0.06,weatherlink.com 1.10,2017-03-27 08:46:00,
2017-03-27 05:01:00,38.2,36.0,29.97,SSE,165,4.0,11.0,93,0.00,,,0.06,weatherlink.com 1.10,2017-03-27 09:01:00,
2017-03-27 05:17:00,38.3,37.0,29.97,SSE,165,6.0,16.0,93,0.00,,,0.06,weatherlink.com 1.10,2017-03-27 09:17:00,
2017-03-27 05:32:00,38.4,37.0,29.97,SSE,157,3.0,12.0,93,0.00,,,0.06,weatherlink.com 1.10,2017-03-27 09:32:00,
2017-03-27 05:46:00,38.7,37.0,29.96,South,190,12.0,16.0,93,0.00,,,0.06,weatherlink.com 1.10,2017-03-27 09:46:00,
2017-03-27 06:01:00,38.8,37.0,29.96,WSW,252,7.0,14.0,93,0.00,,,0.06,weatherlink.com 1.10,2017-03-27 10:01:00,
2017-03-27 06:16:00,38.9,37.0,29.96,South,190,8.0,19.0,93,0.01,,,0.07,weatherlink.com 1.10,2017-03-27 10:16:00,
2017-03-27 06:31:00,39.2,37.0,29.95,SSE,151,12.0,20.0,93,0.02,,,0.08,weatherlink.com 1.10,2017-03-27 10:31:00,
2017-03-27 06:47:00,39.0,38.0,29.95,SSE,163,6.0,19.0,94,0.05,,,0.11,weatherlink.com 1.10,2017-03-27 10:47:00,
2017-03-27 07:02:00,39.2,38.0,29.95,SSE,154,9.0,19.0,95,0.09,,,0.15,weatherlink.com 1.10,2017-03-27 11:02:00,
2017-03-27 07:17:00,39.2,38.0,29.94,South,172,12.0,21.0,95,0.13,,,0.20,weatherlink.com 1.10,2017-03-27 11:17:00,
2017-03-27 07:31:00,39.4,38.0,29.95,SSE,155,8.0,26.0,95,0.16,,,0.24,weatherlink.com 1.10,2017-03-27 11:31:00,
2017-03-27 07:46:00,39.5,38.0,29.95,ESE,112,7.0,23.0,94,0.13,,,0.24,weatherlink.com 1.10,2017-03-27 11:46:00,
2017-03-27 08:02:00,39.6,38.0,29.95,SSE,165,12.0,20.0,94,0.09,,,0.24,weatherlink.com 1.10,2017-03-27 12:02:00,
2017-03-27 08:18:00,39.7,38.0,29.96,SE,133,7.0,17.0,94,0.03,,,0.24,weatherlink.com 1.10,2017-03-27 12:18:00,
2017-03-27 08:33:00,40.1,39.0,29.96,SE,145,10.0,24.0,94,0.00,,,0.24,weatherlink.com 1.10,2017-03-27 12:33:00,
2017-03-27 08:48:00,40.5,39.0,29.96,SE,124,10.0,17.0,93,0.00,,,0.24,weatherlink.com 1.10,2017-03-27 12:48:00,
2017-03-27 09:02:00,40.9,39.0,29.96,SSE,159,13.0,19.0,93,0.00,,,0.24,weatherlink.com 1.10,2017-03-27 13:02:00,
2017-03-27 09:17:00,41.3,40.0,29.96,SSE,152,7.0,15.0,93,0.00,,,0.24,weatherlink.com 1.10,2017-03-27 13:17:00,
2017-03-27 09:33:00,41.8,40.0,29.96,SSW,203,5.0,15.0,92,0.00,,,0.24,weatherlink.com 1.10,2017-03-27 13:33:00,
2017-03-27 09:48:00,43.0,41.0,29.95,South,174,12.0,16.0,91,0.00,,,0.24,weatherlink.com 1.10,2017-03-27 13:48:00,
2017-03-27 10:03:00,43.9,41.0,29.94,South,182,11.0,19.0,90,0.00,,,0.24,weatherlink.com 1.10,2017-03-27 14:03:00,
2017-03-27 10:19:00,44.6,42.0,29.94,SW,216,5.0,19.0,89,0.00,,,0.24,weatherlink.com 1.10,2017-03-27 14:19:00,
2017-03-27 10:34:00,44.2,41.0,29.94,SSE,159,9.0,18.0,89,0.00,,,0.24,weatherlink.com 1.10,2017-03-27 14:34:00,
2017-03-27 10:48:00,44.2,42.0,29.94,South,188,8.0,16.0,90,0.00,,,0.24,weatherlink.com 1.10,2017-03-27 14:48:00,
2017-03-27 11:04:00,44.3,41.0,29.94,SE,129,4.0,14.0,89,0.00,,,0.24,weatherlink.com 1.10,2017-03-27 15:04:00,
2017-03-27 11:18:00,44.8,42.0,29.93,SE,140,9.0,17.0,90,0.00,,,0.24,weatherlink.com 1.10,2017-03-27 15:18:00,
2017-03-27 11:33:00,44.4,41.0,29.94,South,181,7.0,15.0,89,0.00,,,0.24,weatherlink.com 1.10,2017-03-27 15:33:00,
2017-03-27 11:49:00,43.8,41.0,29.94,ESE,119,6.0,13.0,91,0.01,,,0.25,weatherlink.com 1.10,2017-03-27 15:49:00,
2017-03-27 12:03:00,43.5,42.0,29.94,South,179,9.0,13.0,93,0.01,,,0.25,weatherlink.com 1.10,2017-03-27 16:03:00,
2017-03-27 12:19:00,43.9,42.0,29.94,SSE,159,4.0,12.0,93,0.01,,,0.25,weatherlink.com 1.10,2017-03-27 16:19:00,
2017-03-27 12:34:00,44.3,42.0,29.93,SSE,150,1.0,12.0,92,0.01,,,0.25,weatherlink.com 1.10,2017-03-27 16:34:00,
2017-03-27 12:49:00,44.6,42.0,29.93,SE,141,8.0,13.0,91,0.00,,,0.25,weatherlink.com 1.10,2017-03-27 16:49:00,
2017-03-27 13:04:00,44.9,43.0,29.93,SE,145,2.0,13.0,91,0.00,,,0.25,weatherlink.com 1.10,2017-03-27 17:04:00,
2017-03-27 13:20:00,45.9,43.0,29.93,SE,130,2.0,12.0,90,0.00,,,0.25,weatherlink.com 1.10,2017-03-27 17:20:00,
2017-03-27 13:35:00,46.5,44.0,29.93,SSE,150,5.0,11.0,90,0.00,,,0.25,weatherlink.com 1.10,2017-03-27 17:35:00,
2017-03-27 13:49:00,47.3,44.0,29.92,South,171,10.0,12.0,89,0.00,,,0.25,weatherlink.com 1.10,2017-03-27 17:49:00,
2017-03-27 14:04:00,47.5,44.0,29.93,SSE,150,7.0,12.0,88,0.00,,,0.25,weatherlink.com 1.10,2017-03-27 18:04:00,
2017-03-27 14:20:00,47.2,44.0,29.92,SSE,164,4.0,13.0,89,0.00,,,0.25,weatherlink.com 1.10,2017-03-27 18:20:00,
2017-03-27 14:35:00,47.4,44.0,29.91,South,188,6.0,12.0,89,0.00,,,0.25,weatherlink.com 1.10,2017-03-27 18:35:00,
2017-03-27 14:50:00,46.7,45.0,29.91,ESE,116,7.0,11.0,92,0.01,,,0.26,weatherlink.com 1.10,2017-03-27 18:50:00,
2017-03-27 15:05:00,46.9,45.0,29.91,SSE,158,4.0,9.0,94,0.02,,,0.27,weatherlink.com 1.10,2017-03-27 19:05:00,
2017-03-27 15:20:00,47.3,46.0,29.91,SSE,152,1.0,11.0,94,0.02,,,0.27,weatherlink.com 1.10,2017-03-27 19:20:00,
2017-03-27 15:36:00,47.9,46.0,29.90,SE,124,2.0,6.0,94,0.02,,,0.27,weatherlink.com 1.10,2017-03-27 19:36:00,
2017-03-27 15:50:00,48.3,46.0,29.90,SE,130,4.0,9.0,93,0.01,,,0.27,weatherlink.com 1.10,2017-03-27 19:50:00,
2017-03-27 16:05:00,48.3,46.0,29.90,SE,133,6.0,9.0,92,0.00,,,0.27,weatherlink.com 1.10,2017-03-27 20:05:00,
2017-03-27 16:20:00,48.6,46.0,29.90,South,171,2.0,9.0,92,0.00,,,0.27,weatherlink.com 1.10,2017-03-27 20:20:00,